sensor_id;sensor_type;location;lat;lon;timestamp;pressure;altitude;pressure_sealevel;temperature
74915;BMP280;63475;45.140;-75.616;2022-10-17T00:00:17;100071.03;;;11.97
74915;BMP280;63475;45.140;-75.616;2022-10-17T00:01:18;100065.06;;;11.93
74915;BMP280;63475;45.140;-75.616;2022-10-17T00:02:19;100056.78;;;11.91
74915;BMP280;63475;45.140;-75.616;2022-10-17T00:03:20;100061.25;;;11.94
74915;BMP280;63475;45.140;-75.616;2022-10-17T00:04:21;100051.81;;;11.93
74915;BMP280;63475;45.140;-75.616;2022-10-17T00:05:22;100049.91;;;11.94
74915;BMP280;63475;45.140;-75.616;2022-10-17T00:06:24;100052.22;;;11.92
74915;BMP280;63475;45.140;-75.616;2022-10-17T00:07:25;100043.97;;;11.90
74915;BMP280;63475;45.140;-75.616;2022-10-17T00:08:26;100050.00;;;11.90
74915;BMP280;63475;45.140;-75.616;2022-10-17T00:09:27;100045.13;;;11.89
74915;BMP280;63475;45.140;-75.616;2022-10-17T00:10:37;100033.09;;;11.84
74915;BMP280;63475;45.140;-75.616;2022-10-17T00:11:38;100039.56;;;11.83
74915;BMP280;63475;45.140;-75.616;2022-10-17T00:12:39;100047.09;;;11.85
74915;BMP280;63475;45.140;-75.616;2022-10-17T00:13:40;100037.66;;;11.84
74915;BMP280;63475;45.140;-75.616;2022-10-17T00:14:41;100039.56;;;11.83
74915;BMP280;63475;45.140;-75.616;2022-10-17T00:15:43;100040.72;;;11.82
74915;BMP280;63475;45.140;-75.616;2022-10-17T00:16:44;100043.38;;;11.82
74915;BMP280;63475;45.140;-75.616;2022-10-17T00:17:45;100039.66;;;11.80
74915;BMP280;63475;45.140;-75.616;2022-10-17T00:18:46;100044.19;;;11.79
74915;BMP280;63475;45.140;-75.616;2022-10-17T00:19:47;100041.16;;;11.77
74915;BMP280;63475;45.140;-75.616;2022-10-17T00:20:48;100056.28;;;11.80
74915;BMP280;63475;45.140;-75.616;2022-10-17T00:21:49;100058.91;;;11.80
74915;BMP280;63475;45.140;-75.616;2022-10-17T00:22:50;100058.56;;;11.78
74915;BMP280;63475;45.140;-75.616;2022-10-17T00:23:52;100051.75;;;11.77
74915;BMP280;63475;45.140;-75.616;2022-10-17T00:24:53;100042.31;;;11.76
74915;BMP280;63475;45.140;-75.616;2022-10-17T00:26:01;100041.16;;;11.77
74915;BMP280;63475;45.140;-75.616;2022-10-17T00:27:02;100052.50;;;11.78
74915;BMP280;63475;45.140;-75.616;2022-10-17T00:28:03;100044.56;;;11.78
74915;BMP280;63475;45.140;-75.616;2022-10-17T00:29:04;100031.75;;;11.76
74915;BMP280;63475;45.140;-75.616;2022-10-17T00:30:08;100034.38;;;11.76
74915;BMP280;63475;45.140;-75.616;2022-10-17T00:31:10;100038.22;;;11.75
74915;BMP280;63475;45.140;-75.616;2022-10-17T00:32:11;100036.31;;;11.76
74915;BMP280;63475;45.140;-75.616;2022-10-17T00:33:12;100035.97;;;11.74
74915;BMP280;63475;45.140;-75.616;2022-10-17T00:34:13;100037.88;;;11.73
74915;BMP280;63475;45.140;-75.616;2022-10-17T00:35:14;100032.97;;;11.72
74915;BMP280;63475;45.140;-75.616;2022-10-17T00:36:19;100038.63;;;11.74
74915;BMP280;63475;45.140;-75.616;2022-10-17T00:37:20;100024.28;;;11.71
74915;BMP280;63475;45.140;-75.616;2022-10-17T00:38:21;100026.94;;;11.71
74915;BMP280;63475;45.140;-75.616;2022-10-17T00:39:22;100032.22;;;11.71
74915;BMP280;63475;45.140;-75.616;2022-10-17T00:40:23;100025.44;;;11.70
74915;BMP280;63475;45.140;-75.616;2022-10-17T00:41:32;100032.97;;;11.72
74915;BMP280;63475;45.140;-75.616;2022-10-17T00:42:34;100022.91;;;11.67
74915;BMP280;63475;45.140;-75.616;2022-10-17T00:43:52;100025.88;;;11.69
74915;BMP280;63475;45.140;-75.616;2022-10-17T00:46:07;100020.25;;;11.67
74915;BMP280;63475;45.140;-75.616;2022-10-17T00:47:10;100011.91;;;11.68
74915;BMP280;63475;45.140;-75.616;2022-10-17T00:48:14;100018.34;;;11.67
74915;BMP280;63475;45.140;-75.616;2022-10-17T00:49:15;100006.66;;;11.65
74915;BMP280;63475;45.140;-75.616;2022-10-17T00:50:17;100012.72;;;11.65
74915;BMP280;63475;45.140;-75.616;2022-10-17T00:51:24;100011.22;;;11.64
74915;BMP280;63475;45.140;-75.616;2022-10-17T00:52:28;100011.63;;;11.63
74915;BMP280;63475;45.140;-75.616;2022-10-17T00:53:30;100004.53;;;11.59
74915;BMP280;63475;45.140;-75.616;2022-10-17T00:54:37;100005.69;;;11.58
74915;BMP280;63475;45.140;-75.616;2022-10-17T00:55:51;100010.97;;;11.58
74915;BMP280;63475;45.140;-75.616;2022-10-17T00:56:52;100003.09;;;11.55
74915;BMP280;63475;45.140;-75.616;2022-10-17T00:57:54;100008.72;;;11.57
74915;BMP280;63475;45.140;-75.616;2022-10-17T00:58:56;100006.47;;;11.55
74915;BMP280;63475;45.140;-75.616;2022-10-17T00:59:58;99995.16;;;11.55
74915;BMP280;63475;45.140;-75.616;2022-10-17T01:01:00;100000.78;;;11.57
74915;BMP280;63475;45.140;-75.616;2022-10-17T01:02:08;100006.47;;;11.55
74915;BMP280;63475;45.140;-75.616;2022-10-17T01:03:10;100006.88;;;11.54
74915;BMP280;63475;45.140;-75.616;2022-10-17T01:04:11;99997.53;;;11.49
74915;BMP280;63475;45.140;-75.616;2022-10-17T01:05:13;100003.19;;;11.51
74915;BMP280;63475;45.140;-75.616;2022-10-17T01:06:15;100003.59;;;11.50
74915;BMP280;63475;45.140;-75.616;2022-10-17T01:07:16;100009.28;;;11.48
74915;BMP280;63475;45.140;-75.616;2022-10-17T01:08:17;100002.09;;;11.49
74915;BMP280;63475;45.140;-75.616;2022-10-17T01:09:18;100003.69;;;11.46
74915;BMP280;63475;45.140;-75.616;2022-10-17T01:10:20;100004.41;;;11.47
74915;BMP280;63475;45.140;-75.616;2022-10-17T01:11:55;99983.34;;;11.40
74915;BMP280;63475;45.140;-75.616;2022-10-17T01:13:05;99988.97;;;11.42
74915;BMP280;63475;45.140;-75.616;2022-10-17T01:15:42;99992.13;;;11.37
74915;BMP280;63475;45.140;-75.616;2022-10-17T01:17:14;99993.63;;;11.38
74915;BMP280;63475;45.140;-75.616;2022-10-17T01:18:40;99994.38;;;11.38
74915;BMP280;63475;45.140;-75.616;2022-10-17T01:20:03;99998.91;;;11.38
74915;BMP280;63475;45.140;-75.616;2022-10-17T01:21:37;99991.78;;;11.35
74915;BMP280;63475;45.140;-75.616;2022-10-17T01:23:01;99995.66;;;11.30
74915;BMP280;63475;45.140;-75.616;2022-10-17T01:31:37;99984.06;;;11.24
74915;BMP280;63475;45.140;-75.616;2022-10-17T01:32:46;99982.25;;;11.21
74915;BMP280;63475;45.140;-75.616;2022-10-17T01:35:13;99982.69;;;11.16
74915;BMP280;63475;45.140;-75.616;2022-10-17T01:38:46;99986.19;;;11.13
74915;BMP280;63475;45.140;-75.616;2022-10-17T01:42:23;99983.13;;;11.14
74915;BMP280;63475;45.140;-75.616;2022-10-17T01:43:44;99982.38;;;11.14
74915;BMP280;63475;45.140;-75.616;2022-10-17T01:44:54;99990.72;;;11.12
74915;BMP280;63475;45.140;-75.616;2022-10-17T01:46:02;99980.94;;;11.09
74915;BMP280;63475;45.140;-75.616;2022-10-17T01:47:09;99970.84;;;11.04
74915;BMP280;63475;45.140;-75.616;2022-10-17T01:48:17;99979.41;;;11.08
74915;BMP280;63475;45.140;-75.616;2022-10-17T01:49:23;99975.66;;;11.09
74915;BMP280;63475;45.140;-75.616;2022-10-17T01:50:35;99970.09;;;11.04
74915;BMP280;63475;45.140;-75.616;2022-10-17T01:52:48;99971.63;;;11.01
74915;BMP280;63475;45.140;-75.616;2022-10-17T01:53:55;99979.91;;;11.03
74915;BMP280;63475;45.140;-75.616;2022-10-17T01:55:08;99964.53;;;10.98
74915;BMP280;63475;45.140;-75.616;2022-10-17T01:56:12;99978.81;;;11.01
74915;BMP280;63475;45.140;-75.616;2022-10-17T01:57:28;99969.81;;;10.98
74915;BMP280;63475;45.140;-75.616;2022-10-17T01:58:34;99978.50;;;10.99
74915;BMP280;63475;45.140;-75.616;2022-10-17T01:59:39;99971.72;;;10.98
74915;BMP280;63475;45.140;-75.616;2022-10-17T02:00:42;99978.16;;;10.97
74915;BMP280;63475;45.140;-75.616;2022-10-17T02:01:47;99975.91;;;10.95
74915;BMP280;63475;45.140;-75.616;2022-10-17T02:03:02;99976.25;;;10.97
74915;BMP280;63475;45.140;-75.616;2022-10-17T02:04:06;99974.00;;;10.96
74915;BMP280;63475;45.140;-75.616;2022-10-17T02:05:09;99977.06;;;10.94
74915;BMP280;63475;45.140;-75.616;2022-10-17T02:06:10;99969.53;;;10.93
74915;BMP280;63475;45.140;-75.616;2022-10-17T02:07:12;99975.25;;;10.91
74915;BMP280;63475;45.140;-75.616;2022-10-17T02:08:27;99965.41;;;10.92
74915;BMP280;63475;45.140;-75.616;2022-10-17T02:09:28;99968.81;;;10.92
74915;BMP280;63475;45.140;-75.616;2022-10-17T02:10:44;99966.56;;;10.91
74915;BMP280;63475;45.140;-75.616;2022-10-17T02:12:08;99961.28;;;10.91
74915;BMP280;63475;45.140;-75.616;2022-10-17T02:14:48;99963.97;;;10.87
74915;BMP280;63475;45.140;-75.616;2022-10-17T02:16:16;99960.59;;;10.86
74915;BMP280;63475;45.140;-75.616;2022-10-17T02:19:49;99945.97;;;10.82
74915;BMP280;63475;45.140;-75.616;2022-10-17T02:21:00;99939.59;;;10.79
74915;BMP280;63475;45.140;-75.616;2022-10-17T02:23:40;99938.84;;;10.79
74915;BMP280;63475;45.140;-75.616;2022-10-17T02:26:06;99945.66;;;10.76
74915;BMP280;63475;45.140;-75.616;2022-10-17T02:28:31;99951.06;;;10.69
74915;BMP280;63475;45.140;-75.616;2022-10-17T02:29:45;99955.19;;;10.70
74915;BMP280;63475;45.140;-75.616;2022-10-17T02:31:11;99948.41;;;10.69
74915;BMP280;63475;45.140;-75.616;2022-10-17T02:32:12;99942.13;;;10.63
74915;BMP280;63475;45.140;-75.616;2022-10-17T02:33:38;99951.16;;;10.66
74915;BMP280;63475;45.140;-75.616;2022-10-17T02:34:53;99951.16;;;10.66
74915;BMP280;63475;45.140;-75.616;2022-10-17T02:35:58;99946.22;;;10.68
74915;BMP280;63475;45.140;-75.616;2022-10-17T02:37:02;99948.84;;;10.68
74915;BMP280;63475;45.140;-75.616;2022-10-17T02:38:07;99944.38;;;10.65
74915;BMP280;63475;45.140;-75.616;2022-10-17T02:39:10;99940.56;;;10.66
74915;BMP280;63475;45.140;-75.616;2022-10-17T02:40:14;99944.38;;;10.65
74915;BMP280;63475;45.140;-75.616;2022-10-17T02:41:18;99932.69;;;10.62
74915;BMP280;63475;45.140;-75.616;2022-10-17T02:42:20;99942.13;;;10.63
74915;BMP280;63475;45.140;-75.616;2022-10-17T02:43:23;99927.81;;;10.61
74915;BMP280;63475;45.140;-75.616;2022-10-17T02:44:25;99935.44;;;10.59
74915;BMP280;63475;45.140;-75.616;2022-10-17T02:45:29;99929.44;;;10.55
74915;BMP280;63475;45.140;-75.616;2022-10-17T02:46:36;99930.28;;;10.52
74915;BMP280;63475;45.140;-75.616;2022-10-17T02:47:54;99932.16;;;10.51
74915;BMP280;63475;45.140;-75.616;2022-10-17T02:50:42;99925.78;;;10.48
74915;BMP280;63475;45.140;-75.616;2022-10-17T02:52:00;99918.66;;;10.45
74915;BMP280;63475;45.140;-75.616;2022-10-17T02:53:05;99917.47;;;10.50
74915;BMP280;63475;45.140;-75.616;2022-10-17T02:54:19;99919.75;;;10.48
74915;BMP280;63475;45.140;-75.616;2022-10-17T02:55:33;99916.84;;;10.42
74915;BMP280;63475;45.140;-75.616;2022-10-17T02:56:54;99918.34;;;10.43
74915;BMP280;63475;45.140;-75.616;2022-10-17T02:58:03;99905.53;;;10.42
74915;BMP280;63475;45.140;-75.616;2022-10-17T02:59:08;99915.28;;;10.45
74915;BMP280;63475;45.140;-75.616;2022-10-17T03:00:13;99908.09;;;10.45
74915;BMP280;63475;45.140;-75.616;2022-10-17T03:01:15;99912.25;;;10.46
74915;BMP280;63475;45.140;-75.616;2022-10-17T03:02:17;99906.22;;;10.46
74915;BMP280;63475;45.140;-75.616;2022-10-17T03:03:29;99897.22;;;10.43
74915;BMP280;63475;45.140;-75.616;2022-10-17T03:04:30;99899.03;;;10.46
74915;BMP280;63475;45.140;-75.616;2022-10-17T03:05:31;99899.03;;;10.46
74915;BMP280;63475;45.140;-75.616;2022-10-17T03:06:32;99891.50;;;10.45
74915;BMP280;63475;45.140;-75.616;2022-10-17T03:07:33;99900.19;;;10.45
74915;BMP280;63475;45.140;-75.616;2022-10-17T03:08:34;99892.25;;;10.45
74915;BMP280;63475;45.140;-75.616;2022-10-17T03:09:35;99892.25;;;10.45
74915;BMP280;63475;45.140;-75.616;2022-10-17T03:10:36;99888.88;;;10.45
74915;BMP280;63475;45.140;-75.616;2022-10-17T03:11:36;99872.78;;;10.36
74915;BMP280;63475;45.140;-75.616;2022-10-17T03:12:38;99883.66;;;10.41
74915;BMP280;63475;45.140;-75.616;2022-10-17T03:13:39;99889.28;;;10.43
74915;BMP280;63475;45.140;-75.616;2022-10-17T03:14:40;99877.31;;;10.35
74915;BMP280;63475;45.140;-75.616;2022-10-17T03:15:41;99886.66;;;10.43
74915;BMP280;63475;45.140;-75.616;2022-10-17T03:16:42;99876.09;;;10.43
74915;BMP280;63475;45.140;-75.616;2022-10-17T03:17:43;99870.88;;;10.40
74915;BMP280;63475;45.140;-75.616;2022-10-17T03:18:44;99875.41;;;10.39
74915;BMP280;63475;45.140;-75.616;2022-10-17T03:19:45;99878.06;;;10.36
74915;BMP280;63475;45.140;-75.616;2022-10-17T03:20:46;99870.88;;;10.36
74915;BMP280;63475;45.140;-75.616;2022-10-17T03:21:47;99875.84;;;10.34
74915;BMP280;63475;45.140;-75.616;2022-10-17T03:22:48;99874.66;;;10.35
74915;BMP280;63475;45.140;-75.616;2022-10-17T03:23:48;99877.31;;;10.35
74915;BMP280;63475;45.140;-75.616;2022-10-17T03:24:49;99868.72;;;10.31
74915;BMP280;63475;45.140;-75.616;2022-10-17T03:25:50;99875.50;;;10.32
74915;BMP280;63475;45.140;-75.616;2022-10-17T03:26:51;99872.84;;;10.32
74915;BMP280;63475;45.140;-75.616;2022-10-17T03:27:52;99862.69;;;10.31
74915;BMP280;63475;45.140;-75.616;2022-10-17T03:28:53;99868.03;;;10.27
74915;BMP280;63475;45.140;-75.616;2022-10-17T03:29:54;99866.13;;;10.28
74915;BMP280;63475;45.140;-75.616;2022-10-17T03:30:55;99871.00;;;10.29
74915;BMP280;63475;45.140;-75.616;2022-10-17T03:31:55;99862.03;;;10.27
74915;BMP280;63475;45.140;-75.616;2022-10-17T03:32:57;99868.38;;;10.29
74915;BMP280;63475;45.140;-75.616;2022-10-17T03:33:58;99869.13;;;10.30
74915;BMP280;63475;45.140;-75.616;2022-10-17T03:34:59;99858.34;;;10.21
74915;BMP280;63475;45.140;-75.616;2022-10-17T03:36:04;99856.00;;;10.26
74915;BMP280;63475;45.140;-75.616;2022-10-17T03:37:06;99852.31;;;10.20
74915;BMP280;63475;45.140;-75.616;2022-10-17T03:38:07;99865.72;;;10.29
74915;BMP280;63475;45.140;-75.616;2022-10-17T03:39:08;99860.81;;;10.31
74915;BMP280;63475;45.140;-75.616;2022-10-17T03:40:09;99861.94;;;10.30
74915;BMP280;63475;45.140;-75.616;2022-10-17T03:41:10;99859.31;;;10.30
74915;BMP280;63475;45.140;-75.616;2022-10-17T03:42:11;99852.94;;;10.28
74915;BMP280;63475;45.140;-75.616;2022-10-17T03:43:12;99858.66;;;10.26
74915;BMP280;63475;45.140;-75.616;2022-10-17T03:44:13;99847.72;;;10.24
74915;BMP280;63475;45.140;-75.616;2022-10-17T03:45:14;99849.63;;;10.24
74915;BMP280;63475;45.140;-75.616;2022-10-17T03:46:15;99847.38;;;10.22
74915;BMP280;63475;45.140;-75.616;2022-10-17T03:47:15;99842.91;;;10.19
74915;BMP280;63475;45.140;-75.616;2022-10-17T03:48:16;99844.75;;;10.22
74915;BMP280;63475;45.140;-75.616;2022-10-17T03:49:17;99844.00;;;10.22
74915;BMP280;63475;45.140;-75.616;2022-10-17T03:50:18;99844.00;;;10.22
74915;BMP280;63475;45.140;-75.616;2022-10-17T03:51:19;99849.69;;;10.20
74915;BMP280;63475;45.140;-75.616;2022-10-17T03:52:20;99846.72;;;10.18
74915;BMP280;63475;45.140;-75.616;2022-10-17T03:53:21;99849.34;;;10.18
74915;BMP280;63475;45.140;-75.616;2022-10-17T03:54:22;99841.44;;;10.18
74915;BMP280;63475;45.140;-75.616;2022-10-17T03:55:23;99838.81;;;10.18
74915;BMP280;63475;45.140;-75.616;2022-10-17T03:56:24;99844.75;;;10.22
74915;BMP280;63475;45.140;-75.616;2022-10-17T03:57:25;99835.81;;;10.16
74915;BMP280;63475;45.140;-75.616;2022-10-17T03:58:26;99836.47;;;10.20
74915;BMP280;63475;45.140;-75.616;2022-10-17T03:59:28;99834.97;;;10.19
74915;BMP280;63475;45.140;-75.616;2022-10-17T04:00:29;99842.50;;;10.21
74915;BMP280;63475;45.140;-75.616;2022-10-17T04:01:30;99838.81;;;10.18
74915;BMP280;63475;45.140;-75.616;2022-10-17T04:02:31;99838.06;;;10.18
74915;BMP280;63475;45.140;-75.616;2022-10-17T04:03:32;99829.38;;;10.17
74915;BMP280;63475;45.140;-75.616;2022-10-17T04:04:33;99827.50;;;10.18
74915;BMP280;63475;45.140;-75.616;2022-10-17T04:05:34;99823.34;;;10.17
74915;BMP280;63475;45.140;-75.616;2022-10-17T04:06:35;99822.31;;;10.10
74915;BMP280;63475;45.140;-75.616;2022-10-17T04:07:36;99829.03;;;10.15
74915;BMP280;63475;45.140;-75.616;2022-10-17T04:08:38;99830.19;;;10.14
74915;BMP280;63475;45.140;-75.616;2022-10-17T04:09:39;99833.16;;;10.16
74915;BMP280;63475;45.140;-75.616;2022-10-17T04:10:39;99833.53;;;10.18
74915;BMP280;63475;45.140;-75.616;2022-10-17T04:11:40;99836.56;;;10.17
74915;BMP280;63475;45.140;-75.616;2022-10-17T04:12:41;99832.78;;;10.18
74915;BMP280;63475;45.140;-75.616;2022-10-17T04:13:43;99833.53;;;10.18
74915;BMP280;63475;45.140;-75.616;2022-10-17T04:14:44;99832.06;;;10.13
74915;BMP280;63475;45.140;-75.616;2022-10-17T04:15:56;99829.78;;;10.16
74915;BMP280;63475;45.140;-75.616;2022-10-17T04:16:57;99830.19;;;10.14
74915;BMP280;63475;45.140;-75.616;2022-10-17T04:17:58;99824.56;;;10.12
74915;BMP280;63475;45.140;-75.616;2022-10-17T04:18:59;99835.81;;;10.16
74915;BMP280;63475;45.140;-75.616;2022-10-17T04:20:00;99817.47;;;10.09
74915;BMP280;63475;45.140;-75.616;2022-10-17T04:21:05;99837.31;;;10.17
74915;BMP280;63475;45.140;-75.616;2022-10-17T04:22:06;99831.63;;;10.19
74915;BMP280;63475;45.140;-75.616;2022-10-17T04:23:07;99823.00;;;10.15
74915;BMP280;63475;45.140;-75.616;2022-10-17T04:24:10;99825.25;;;10.16
74915;BMP280;63475;45.140;-75.616;2022-10-17T04:25:11;99814.09;;;10.08
74915;BMP280;63475;45.140;-75.616;2022-10-17T04:26:13;99812.94;;;10.09
74915;BMP280;63475;45.140;-75.616;2022-10-17T04:27:14;99830.53;;;10.16
74915;BMP280;63475;45.140;-75.616;2022-10-17T04:28:15;99830.13;;;10.18
74915;BMP280;63475;45.140;-75.616;2022-10-17T04:29:16;99815.84;;;10.15
74915;BMP280;63475;45.140;-75.616;2022-10-17T04:30:17;99816.63;;;10.12
74915;BMP280;63475;45.140;-75.616;2022-10-17T04:31:18;99821.53;;;10.13
74915;BMP280;63475;45.140;-75.616;2022-10-17T04:32:19;99822.97;;;10.18
74915;BMP280;63475;45.140;-75.616;2022-10-17T04:33:19;99822.22;;;10.18
74915;BMP280;63475;45.140;-75.616;2022-10-17T04:34:20;99821.47;;;10.17
74915;BMP280;63475;45.140;-75.616;2022-10-17T04:35:21;99813.94;;;10.16
74915;BMP280;63475;45.140;-75.616;2022-10-17T04:36:22;99822.25;;;10.14
74915;BMP280;63475;45.140;-75.616;2022-10-17T04:37:23;99801.31;;;10.03
74915;BMP280;63475;45.140;-75.616;2022-10-17T04:38:24;99814.00;;;10.12
74915;BMP280;63475;45.140;-75.616;2022-10-17T04:39:26;99817.72;;;10.15
74915;BMP280;63475;45.140;-75.616;2022-10-17T04:40:26;99813.94;;;10.16
74915;BMP280;63475;45.140;-75.616;2022-10-17T04:41:27;99816.59;;;10.16
74915;BMP280;63475;45.140;-75.616;2022-10-17T04:42:28;99807.19;;;10.15
74915;BMP280;63475;45.140;-75.616;2022-10-17T04:43:35;99818.81;;;10.17
74915;BMP280;63475;45.140;-75.616;2022-10-17T04:44:36;99803.78;;;10.14
74915;BMP280;63475;45.140;-75.616;2022-10-17T04:45:37;99797.00;;;10.13
74915;BMP280;63475;45.140;-75.616;2022-10-17T04:46:38;99800.41;;;10.13
74915;BMP280;63475;45.140;-75.616;2022-10-17T04:47:39;99792.13;;;10.11
74915;BMP280;63475;45.140;-75.616;2022-10-17T04:48:40;99794.03;;;10.11
74915;BMP280;63475;45.140;-75.616;2022-10-17T04:49:41;99788.44;;;10.09
74915;BMP280;63475;45.140;-75.616;2022-10-17T04:50:52;99797.41;;;10.11
74915;BMP280;63475;45.140;-75.616;2022-10-17T04:51:53;99788.44;;;10.09
74915;BMP280;63475;45.140;-75.616;2022-10-17T04:52:54;99791.81;;;10.09
74915;BMP280;63475;45.140;-75.616;2022-10-17T04:53:55;99790.31;;;10.08
74915;BMP280;63475;45.140;-75.616;2022-10-17T04:54:56;99773.50;;;9.99
74915;BMP280;63475;45.140;-75.616;2022-10-17T04:55:57;99782.81;;;10.07
74915;BMP280;63475;45.140;-75.616;2022-10-17T04:56:58;99782.81;;;10.07
74915;BMP280;63475;45.140;-75.616;2022-10-17T04:57:59;99776.78;;;10.06
74915;BMP280;63475;45.140;-75.616;2022-10-17T04:59:00;99771.13;;;10.04
74915;BMP280;63475;45.140;-75.616;2022-10-17T05:00:01;99775.00;;;10.00
74915;BMP280;63475;45.140;-75.616;2022-10-17T05:01:06;99772.75;;;9.98
74915;BMP280;63475;45.140;-75.616;2022-10-17T05:02:07;99766.38;;;9.96
74915;BMP280;63475;45.140;-75.616;2022-10-17T05:03:08;99767.53;;;9.95
74915;BMP280;63475;45.140;-75.616;2022-10-17T05:04:09;99766.03;;;9.94
74915;BMP280;63475;45.140;-75.616;2022-10-17T05:05:10;99758.56;;;9.92
74915;BMP280;63475;45.140;-75.616;2022-10-17T05:06:17;99765.72;;;9.92
74915;BMP280;63475;45.140;-75.616;2022-10-17T05:07:18;99756.34;;;9.87
74915;BMP280;63475;45.140;-75.616;2022-10-17T05:08:19;99761.19;;;9.92
74915;BMP280;63475;45.140;-75.616;2022-10-17T05:09:20;99751.81;;;9.88
74915;BMP280;63475;45.140;-75.616;2022-10-17T05:10:21;99760.09;;;9.90
74915;BMP280;63475;45.140;-75.616;2022-10-17T05:11:25;99753.66;;;9.91
74915;BMP280;63475;45.140;-75.616;2022-10-17T05:12:26;99752.56;;;9.88
74915;BMP280;63475;45.140;-75.616;2022-10-17T05:13:27;99754.47;;;9.88
74915;BMP280;63475;45.140;-75.616;2022-10-17T05:14:28;99749.19;;;9.88
74915;BMP280;63475;45.140;-75.616;2022-10-17T05:15:29;99746.56;;;9.88
74915;BMP280;63475;45.140;-75.616;2022-10-17T05:16:29;99741.28;;;9.88
74915;BMP280;63475;45.140;-75.616;2022-10-17T05:17:30;99739.78;;;9.87
74915;BMP280;63475;45.140;-75.616;2022-10-17T05:18:31;99744.25;;;9.90
74915;BMP280;63475;45.140;-75.616;2022-10-17T05:19:32;99733.69;;;9.90
74915;BMP280;63475;45.140;-75.616;2022-10-17T05:20:42;99717.88;;;9.90
74915;BMP280;63475;45.140;-75.616;2022-10-17T05:21:43;99719.78;;;9.89
74915;BMP280;63475;45.140;-75.616;2022-10-17T05:22:44;99720.50;;;9.90
74915;BMP280;63475;45.140;-75.616;2022-10-17T05:23:45;99725.38;;;9.91
74915;BMP280;63475;45.140;-75.616;2022-10-17T05:24:46;99704.47;;;9.81
74915;BMP280;63475;45.140;-75.616;2022-10-17T05:25:47;99728.44;;;9.90
74915;BMP280;63475;45.140;-75.616;2022-10-17T05:26:51;99728.44;;;9.90
74915;BMP280;63475;45.140;-75.616;2022-10-17T05:27:52;99728.44;;;9.90
74915;BMP280;63475;45.140;-75.616;2022-10-17T05:28:53;99716.03;;;9.87
74915;BMP280;63475;45.140;-75.616;2022-10-17T05:29:54;99723.59;;;9.85
74915;BMP280;63475;45.140;-75.616;2022-10-17T05:30:55;99720.66;;;9.83
74915;BMP280;63475;45.140;-75.616;2022-10-17T05:31:56;99718.75;;;9.83
74915;BMP280;63475;45.140;-75.616;2022-10-17T05:32:57;99719.16;;;9.82
74915;BMP280;63475;45.140;-75.616;2022-10-17T05:34:04;99715.03;;;9.81
74915;BMP280;63475;45.140;-75.616;2022-10-17T05:35:05;99715.78;;;9.81
74915;BMP280;63475;45.140;-75.616;2022-10-17T05:36:06;99715.03;;;9.81
74915;BMP280;63475;45.140;-75.616;2022-10-17T05:37:07;99719.56;;;9.80
74915;BMP280;63475;45.140;-75.616;2022-10-17T05:38:08;99715.06;;;9.77
74915;BMP280;63475;45.140;-75.616;2022-10-17T05:39:11;99724.09;;;9.80
74915;BMP280;63475;45.140;-75.616;2022-10-17T05:40:14;99717.31;;;9.79
74915;BMP280;63475;45.140;-75.616;2022-10-17T05:41:15;99723.69;;;9.81
74915;BMP280;63475;45.140;-75.616;2022-10-17T05:42:16;99724.84;;;9.80
74915;BMP280;63475;45.140;-75.616;2022-10-17T05:43:17;99721.06;;;9.81
74915;BMP280;63475;45.140;-75.616;2022-10-17T05:44:18;99725.59;;;9.81
74915;BMP280;63475;45.140;-75.616;2022-10-17T05:45:19;99725.59;;;9.81
74915;BMP280;63475;45.140;-75.616;2022-10-17T05:46:20;99722.94;;;9.81
74915;BMP280;63475;45.140;-75.616;2022-10-17T05:47:21;99723.69;;;9.81
74915;BMP280;63475;45.140;-75.616;2022-10-17T05:48:23;99719.56;;;9.80
74915;BMP280;63475;45.140;-75.616;2022-10-17T05:49:24;99727.81;;;9.82
74915;BMP280;63475;45.140;-75.616;2022-10-17T05:50:25;99723.69;;;9.81
74915;BMP280;63475;45.140;-75.616;2022-10-17T05:51:27;99716.91;;;9.80
74915;BMP280;63475;45.140;-75.616;2022-10-17T05:52:28;99721.78;;;9.82
74915;BMP280;63475;45.140;-75.616;2022-10-17T05:53:31;99716.91;;;9.80
74915;BMP280;63475;45.140;-75.616;2022-10-17T05:54:32;99712.38;;;9.81
74915;BMP280;63475;45.140;-75.616;2022-10-17T05:55:33;99708.66;;;9.78
74915;BMP280;63475;45.140;-75.616;2022-10-17T05:56:34;99715.03;;;9.81
74915;BMP280;63475;45.140;-75.616;2022-10-17T05:57:35;99716.56;;;9.78
74915;BMP280;63475;45.140;-75.616;2022-10-17T05:58:42;99710.16;;;9.79
74915;BMP280;63475;45.140;-75.616;2022-10-17T05:59:44;99715.78;;;9.81
74915;BMP280;63475;45.140;-75.616;2022-10-17T06:00:45;99715.38;;;9.83
74915;BMP280;63475;45.140;-75.616;2022-10-17T06:01:46;99709.00;;;9.80
74915;BMP280;63475;45.140;-75.616;2022-10-17T06:02:47;99711.63;;;9.80
74915;BMP280;63475;45.140;-75.616;2022-10-17T06:03:49;99709.75;;;9.81
74915;BMP280;63475;45.140;-75.616;2022-10-17T06:04:50;99706.75;;;9.79
74915;BMP280;63475;45.140;-75.616;2022-10-17T06:05:51;99705.34;;;9.74
74915;BMP280;63475;45.140;-75.616;2022-10-17T06:06:52;99707.25;;;9.73
74915;BMP280;63475;45.140;-75.616;2022-10-17T06:07:53;99706.41;;;9.76
74915;BMP280;63475;45.140;-75.616;2022-10-17T06:08:54;99709.81;;;9.77
74915;BMP280;63475;45.140;-75.616;2022-10-17T06:09:55;99706.41;;;9.76
74915;BMP280;63475;45.140;-75.616;2022-10-17T06:10:57;99706.03;;;9.78
74915;BMP280;63475;45.140;-75.616;2022-10-17T06:11:58;99706.75;;;9.79
74915;BMP280;63475;45.140;-75.616;2022-10-17T06:12:59;99707.84;;;9.81
74915;BMP280;63475;45.140;-75.616;2022-10-17T06:14:00;99704.13;;;9.79
74915;BMP280;63475;45.140;-75.616;2022-10-17T06:15:00;99705.22;;;9.81
74915;BMP280;63475;45.140;-75.616;2022-10-17T06:16:01;99702.97;;;9.80
74915;BMP280;63475;45.140;-75.616;2022-10-17T06:17:02;99695.88;;;9.76
74915;BMP280;63475;45.140;-75.616;2022-10-17T06:18:03;99694.72;;;9.77
74915;BMP280;63475;45.140;-75.616;2022-10-17T06:19:04;99691.34;;;9.77
74915;BMP280;63475;45.140;-75.616;2022-10-17T06:20:06;99689.44;;;9.77
74915;BMP280;63475;45.140;-75.616;2022-10-17T06:21:09;99686.81;;;9.77
74915;BMP280;63475;45.140;-75.616;2022-10-17T06:22:10;99686.50;;;9.75
74915;BMP280;63475;45.140;-75.616;2022-10-17T06:23:11;99683.09;;;9.75